sensor_id;sensor_type;location;lat;lon;timestamp;temperature;humidity
851;DHT22;412;51.400;7.480;2022-09-09T00:00:26;20.60;99.90
851;DHT22;412;51.400;7.480;2022-09-09T00:03:30;20.60;99.90
851;DHT22;412;51.400;7.480;2022-09-09T00:06:08;20.60;99.90
851;DHT22;412;51.400;7.480;2022-09-09T00:11:39;20.50;99.90
851;DHT22;412;51.400;7.480;2022-09-09T00:14:26;20.50;99.90
851;DHT22;412;51.400;7.480;2022-09-09T00:17:25;20.40;99.90
851;DHT22;412;51.400;7.480;2022-09-09T00:20:27;20.40;99.90
851;DHT22;412;51.400;7.480;2022-09-09T00:23:12;20.40;99.90
851;DHT22;412;51.400;7.480;2022-09-09T00:28:25;20.40;99.90
851;DHT22;412;51.400;7.480;2022-09-09T00:30:52;20.40;99.90
851;DHT22;412;51.400;7.480;2022-09-09T00:33:23;20.40;99.90
851;DHT22;412;51.400;7.480;2022-09-09T00:35:57;20.40;99.90
851;DHT22;412;51.400;7.480;2022-09-09T00:38:34;20.40;99.90
851;DHT22;412;51.400;7.480;2022-09-09T00:43:40;20.30;99.90
851;DHT22;412;51.400;7.480;2022-09-09T00:49:24;20.10;99.90
851;DHT22;412;51.400;7.480;2022-09-09T00:54:47;19.90;99.90
851;DHT22;412;51.400;7.480;2022-09-09T00:57:38;20.00;99.90
851;DHT22;412;51.400;7.480;2022-09-09T01:00:25;20.00;99.90
851;DHT22;412;51.400;7.480;2022-09-09T01:03:21;20.00;99.90
851;DHT22;412;51.400;7.480;2022-09-09T01:06:31;20.00;99.90
851;DHT22;412;51.400;7.480;2022-09-09T01:19:54;19.90;99.90
851;DHT22;412;51.400;7.480;2022-09-09T01:25:22;19.80;99.90
851;DHT22;412;51.400;7.480;2022-09-09T01:27:56;19.90;99.90
851;DHT22;412;51.400;7.480;2022-09-09T01:30:23;19.70;99.90
851;DHT22;412;51.400;7.480;2022-09-09T01:32:53;19.70;99.90
851;DHT22;412;51.400;7.480;2022-09-09T01:35:40;19.60;99.90
851;DHT22;412;51.400;7.480;2022-09-09T01:38:09;19.70;99.90
851;DHT22;412;51.400;7.480;2022-09-09T01:40:35;19.70;99.90
851;DHT22;412;51.400;7.480;2022-09-09T01:43:02;19.80;99.90
851;DHT22;412;51.400;7.480;2022-09-09T01:45:28;19.80;99.90
851;DHT22;412;51.400;7.480;2022-09-09T01:47:54;19.90;99.90
851;DHT22;412;51.400;7.480;2022-09-09T01:50:20;19.90;99.90
851;DHT22;412;51.400;7.480;2022-09-09T01:52:50;20.00;99.90
851;DHT22;412;51.400;7.480;2022-09-09T01:55:16;20.00;99.90
851;DHT22;412;51.400;7.480;2022-09-09T01:57:54;20.10;99.90
851;DHT22;412;51.400;7.480;2022-09-09T02:00:21;20.10;99.90
851;DHT22;412;51.400;7.480;2022-09-09T02:05:36;20.10;99.90
851;DHT22;412;51.400;7.480;2022-09-09T02:08:20;20.10;99.90
851;DHT22;412;51.400;7.480;2022-09-09T02:11:05;20.10;99.90
851;DHT22;412;51.400;7.480;2022-09-09T02:13:35;20.10;99.90
851;DHT22;412;51.400;7.480;2022-09-09T02:16:07;20.10;99.90
851;DHT22;412;51.400;7.480;2022-09-09T02:18:38;20.10;99.90
851;DHT22;412;51.400;7.480;2022-09-09T02:21:06;20.10;99.90
851;DHT22;412;51.400;7.480;2022-09-09T02:23:34;20.00;99.90
851;DHT22;412;51.400;7.480;2022-09-09T02:26:00;19.90;99.90
851;DHT22;412;51.400;7.480;2022-09-09T02:28:30;19.80;99.90
851;DHT22;412;51.400;7.480;2022-09-09T02:30:57;19.80;99.90
851;DHT22;412;51.400;7.480;2022-09-09T02:33:27;19.70;99.90
851;DHT22;412;51.400;7.480;2022-09-09T02:35:55;19.70;99.90
851;DHT22;412;51.400;7.480;2022-09-09T02:38:28;19.70;99.90
851;DHT22;412;51.400;7.480;2022-09-09T02:40:55;19.60;99.90
851;DHT22;412;51.400;7.480;2022-09-09T02:43:20;19.20;99.90
851;DHT22;412;51.400;7.480;2022-09-09T02:46:00;19.20;99.90
851;DHT22;412;51.400;7.480;2022-09-09T02:56:47;19.20;99.90
851;DHT22;412;51.400;7.480;2022-09-09T02:59:15;19.30;99.90
851;DHT22;412;51.400;7.480;2022-09-09T03:01:41;19.20;99.90
851;DHT22;412;51.400;7.480;2022-09-09T03:04:07;19.30;99.90
851;DHT22;412;51.400;7.480;2022-09-09T03:06:33;19.30;99.90
851;DHT22;412;51.400;7.480;2022-09-09T03:08:58;19.40;99.90
851;DHT22;412;51.400;7.480;2022-09-09T03:11:27;19.40;99.90
851;DHT22;412;51.400;7.480;2022-09-09T03:13:53;19.40;99.90
851;DHT22;412;51.400;7.480;2022-09-09T03:16:24;19.40;99.90
851;DHT22;412;51.400;7.480;2022-09-09T03:18:50;19.30;99.90
851;DHT22;412;51.400;7.480;2022-09-09T03:21:16;19.20;99.90
851;DHT22;412;51.400;7.480;2022-09-09T03:23:41;19.20;99.90
851;DHT22;412;51.400;7.480;2022-09-09T03:26:07;19.30;99.90
851;DHT22;412;51.400;7.480;2022-09-09T03:28:33;19.30;99.90
851;DHT22;412;51.400;7.480;2022-09-09T03:31:01;19.40;99.90
851;DHT22;412;51.400;7.480;2022-09-09T03:33:27;19.40;99.90
851;DHT22;412;51.400;7.480;2022-09-09T03:35:55;19.30;99.90
851;DHT22;412;51.400;7.480;2022-09-09T03:38:25;19.20;99.90
851;DHT22;412;51.400;7.480;2022-09-09T03:40:55;19.20;99.90
851;DHT22;412;51.400;7.480;2022-09-09T03:43:23;19.30;99.90
851;DHT22;412;51.400;7.480;2022-09-09T03:45:50;19.30;99.90
851;DHT22;412;51.400;7.480;2022-09-09T03:48:16;19.30;99.90
851;DHT22;412;51.400;7.480;2022-09-09T03:50:51;19.20;99.90
851;DHT22;412;51.400;7.480;2022-09-09T03:53:19;19.10;99.90
851;DHT22;412;51.400;7.480;2022-09-09T03:55:50;19.20;99.90
851;DHT22;412;51.400;7.480;2022-09-09T03:58:18;19.10;99.90
851;DHT22;412;51.400;7.480;2022-09-09T04:00:56;19.10;99.90
851;DHT22;412;51.400;7.480;2022-09-09T04:03:23;19.00;99.90
851;DHT22;412;51.400;7.480;2022-09-09T04:05:53;19.00;99.90
851;DHT22;412;51.400;7.480;2022-09-09T04:08:20;19.00;99.90
851;DHT22;412;51.400;7.480;2022-09-09T04:10:50;19.10;99.90
851;DHT22;412;51.400;7.480;2022-09-09T04:13:17;19.20;99.90
851;DHT22;412;51.400;7.480;2022-09-09T04:15:51;19.20;99.90
851;DHT22;412;51.400;7.480;2022-09-09T04:18:17;19.30;99.90
851;DHT22;412;51.400;7.480;2022-09-09T04:20:42;19.40;99.90
851;DHT22;412;51.400;7.480;2022-09-09T04:23:09;19.30;99.90
851;DHT22;412;51.400;7.480;2022-09-09T04:25:34;19.30;99.90
851;DHT22;412;51.400;7.480;2022-09-09T04:28:00;19.30;99.90
851;DHT22;412;51.400;7.480;2022-09-09T04:30:26;19.40;99.90
851;DHT22;412;51.400;7.480;2022-09-09T04:32:53;19.40;99.90
851;DHT22;412;51.400;7.480;2022-09-09T04:35:19;19.50;99.90
851;DHT22;412;51.400;7.480;2022-09-09T04:37:45;19.40;99.90
851;DHT22;412;51.400;7.480;2022-09-09T04:40:11;19.50;99.90
851;DHT22;412;51.400;7.480;2022-09-09T04:42:37;19.50;99.90
851;DHT22;412;51.400;7.480;2022-09-09T04:45:05;19.50;99.90
851;DHT22;412;51.400;7.480;2022-09-09T04:47:30;19.30;99.90
851;DHT22;412;51.400;7.480;2022-09-09T04:49:56;19.30;99.90
851;DHT22;412;51.400;7.480;2022-09-09T04:52:22;19.30;99.90
851;DHT22;412;51.400;7.480;2022-09-09T04:54:48;19.30;99.90
851;DHT22;412;51.400;7.480;2022-09-09T04:57:13;19.10;99.90
851;DHT22;412;51.400;7.480;2022-09-09T04:59:39;19.00;99.90
851;DHT22;412;51.400;7.480;2022-09-09T05:02:05;19.00;99.90
851;DHT22;412;51.400;7.480;2022-09-09T05:04:31;19.10;99.90
851;DHT22;412;51.400;7.480;2022-09-09T05:06:58;19.10;99.90
851;DHT22;412;51.400;7.480;2022-09-09T05:09:24;19.20;99.90
851;DHT22;412;51.400;7.480;2022-09-09T05:11:50;19.30;99.90
851;DHT22;412;51.400;7.480;2022-09-09T05:14:17;19.40;99.90
851;DHT22;412;51.400;7.480;2022-09-09T05:16:44;19.30;99.90
851;DHT22;412;51.400;7.480;2022-09-09T05:19:10;19.40;99.90
851;DHT22;412;51.400;7.480;2022-09-09T05:21:36;19.50;99.90
851;DHT22;412;51.400;7.480;2022-09-09T05:24:03;19.40;99.90
851;DHT22;412;51.400;7.480;2022-09-09T05:26:28;19.40;99.90
851;DHT22;412;51.400;7.480;2022-09-09T05:28:55;19.20;99.90
851;DHT22;412;51.400;7.480;2022-09-09T05:31:21;19.20;99.90
851;DHT22;412;51.400;7.480;2022-09-09T05:33:47;19.20;99.90
851;DHT22;412;51.400;7.480;2022-09-09T05:36:19;19.30;99.90
851;DHT22;412;51.400;7.480;2022-09-09T05:38:47;19.40;99.90
851;DHT22;412;51.400;7.480;2022-09-09T05:41:13;19.50;99.90
851;DHT22;412;51.400;7.480;2022-09-09T05:43:43;19.50;99.90
851;DHT22;412;51.400;7.480;2022-09-09T05:46:20;19.60;99.90
851;DHT22;412;51.400;7.480;2022-09-09T05:48:47;19.60;99.90
851;DHT22;412;51.400;7.480;2022-09-09T05:51:15;19.60;99.90
851;DHT22;412;51.400;7.480;2022-09-09T05:53:41;19.60;99.90
851;DHT22;412;51.400;7.480;2022-09-09T05:56:09;19.60;99.90
851;DHT22;412;51.400;7.480;2022-09-09T05:58:36;19.50;99.90
851;DHT22;412;51.400;7.480;2022-09-09T06:01:04;19.70;99.90
851;DHT22;412;51.400;7.480;2022-09-09T06:03:30;20.00;99.90
851;DHT22;412;51.400;7.480;2022-09-09T06:06:04;20.10;99.90
851;DHT22;412;51.400;7.480;2022-09-09T06:08:37;20.30;99.90
851;DHT22;412;51.400;7.480;2022-09-09T06:11:09;20.60;99.90
851;DHT22;412;51.400;7.480;2022-09-09T06:13:36;20.50;99.90
851;DHT22;412;51.400;7.480;2022-09-09T06:16:05;20.50;99.90
851;DHT22;412;51.400;7.480;2022-09-09T06:18:32;20.50;99.90
851;DHT22;412;51.400;7.480;2022-09-09T06:21:01;20.70;99.90
851;DHT22;412;51.400;7.480;2022-09-09T06:23:27;20.70;99.90
851;DHT22;412;51.400;7.480;2022-09-09T06:26:14;20.50;99.90
851;DHT22;412;51.400;7.480;2022-09-09T06:28:40;20.60;99.90
851;DHT22;412;51.400;7.480;2022-09-09T06:31:11;20.70;99.90
851;DHT22;412;51.400;7.480;2022-09-09T06:33:58;20.80;99.90
851;DHT22;412;51.400;7.480;2022-09-09T06:36:29;20.70;99.90
851;DHT22;412;51.400;7.480;2022-09-09T06:38:55;20.80;99.90
851;DHT22;412;51.400;7.480;2022-09-09T06:41:23;20.70;99.90
851;DHT22;412;51.400;7.480;2022-09-09T06:43:49;20.70;99.90
851;DHT22;412;51.400;7.480;2022-09-09T06:46:23;20.80;99.90
851;DHT22;412;51.400;7.480;2022-09-09T06:48:50;20.80;99.90
851;DHT22;412;51.400;7.480;2022-09-09T06:51:20;20.80;99.90
851;DHT22;412;51.400;7.480;2022-09-09T06:53:53;20.80;99.90
851;DHT22;412;51.400;7.480;2022-09-09T06:56:25;20.90;99.90
851;DHT22;412;51.400;7.480;2022-09-09T06:58:54;20.70;99.90
851;DHT22;412;51.400;7.480;2022-09-09T07:01:25;20.30;99.90
851;DHT22;412;51.400;7.480;2022-09-09T07:03:53;20.10;99.90
851;DHT22;412;51.400;7.480;2022-09-09T07:06:23;20.00;99.90
851;DHT22;412;51.400;7.480;2022-09-09T07:08:51;19.90;99.90
851;DHT22;412;51.400;7.480;2022-09-09T07:11:17;20.10;99.90
851;DHT22;412;51.400;7.480;2022-09-09T07:13:43;20.30;99.90
851;DHT22;412;51.400;7.480;2022-09-09T07:16:14;20.40;99.90
851;DHT22;412;51.400;7.480;2022-09-09T07:18:41;20.60;99.90
851;DHT22;412;51.400;7.480;2022-09-09T07:21:08;20.70;99.90
851;DHT22;412;51.400;7.480;2022-09-09T07:23:34;20.80;99.90
851;DHT22;412;51.400;7.480;2022-09-09T07:26:11;20.80;99.90
851;DHT22;412;51.400;7.480;2022-09-09T07:28:38;20.80;99.90
851;DHT22;412;51.400;7.480;2022-09-09T07:31:04;20.80;99.90
851;DHT22;412;51.400;7.480;2022-09-09T07:33:32;20.90;99.90
851;DHT22;412;51.400;7.480;2022-09-09T07:36:10;21.00;99.90
851;DHT22;412;51.400;7.480;2022-09-09T07:38:45;20.50;99.90
851;DHT22;412;51.400;7.480;2022-09-09T07:41:38;20.50;99.90
851;DHT22;412;51.400;7.480;2022-09-09T07:44:08;20.80;99.90
851;DHT22;412;51.400;7.480;2022-09-09T07:46:34;21.00;99.90
851;DHT22;412;51.400;7.480;2022-09-09T07:49:00;21.10;99.90
851;DHT22;412;51.400;7.480;2022-09-09T07:51:33;21.10;99.90
851;DHT22;412;51.400;7.480;2022-09-09T07:54:05;21.20;99.90
851;DHT22;412;51.400;7.480;2022-09-09T07:56:31;21.30;99.90
851;DHT22;412;51.400;7.480;2022-09-09T07:58:58;21.30;99.90
851;DHT22;412;51.400;7.480;2022-09-09T08:01:30;21.20;99.90
851;DHT22;412;51.400;7.480;2022-09-09T08:04:05;21.30;99.90
851;DHT22;412;51.400;7.480;2022-09-09T08:06:34;21.40;99.90
851;DHT22;412;51.400;7.480;2022-09-09T08:09:00;21.00;99.80
851;DHT22;412;51.400;7.480;2022-09-09T08:11:27;20.80;99.90
851;DHT22;412;51.400;7.480;2022-09-09T08:13:54;20.70;99.90
851;DHT22;412;51.400;7.480;2022-09-09T08:16:23;20.40;99.90
851;DHT22;412;51.400;7.480;2022-09-09T08:18:50;20.30;99.90
851;DHT22;412;51.400;7.480;2022-09-09T08:21:31;20.10;99.90
851;DHT22;412;51.400;7.480;2022-09-09T08:23:58;20.20;99.90
851;DHT22;412;51.400;7.480;2022-09-09T08:26:30;20.30;99.90
851;DHT22;412;51.400;7.480;2022-09-09T08:28:57;20.20;99.90
851;DHT22;412;51.400;7.480;2022-09-09T08:31:26;20.30;99.90
851;DHT22;412;51.400;7.480;2022-09-09T08:33:57;20.10;99.90
851;DHT22;412;51.400;7.480;2022-09-09T08:36:26;20.20;99.90
851;DHT22;412;51.400;7.480;2022-09-09T08:38:54;20.20;99.90
851;DHT22;412;51.400;7.480;2022-09-09T08:52:39;20.50;99.70
851;DHT22;412;51.400;7.480;2022-09-09T08:55:25;20.50;99.50
851;DHT22;412;51.400;7.480;2022-09-09T08:57:55;20.70;99.40
851;DHT22;412;51.400;7.480;2022-09-09T09:00:22;20.70;99.10
851;DHT22;412;51.400;7.480;2022-09-09T09:03:25;20.60;98.60
851;DHT22;412;51.400;7.480;2022-09-09T09:06:18;20.80;97.90
851;DHT22;412;51.400;7.480;2022-09-09T09:09:11;20.80;98.20
851;DHT22;412;51.400;7.480;2022-09-09T09:11:50;20.90;97.90
851;DHT22;412;51.400;7.480;2022-09-09T09:14:25;20.90;98.00
851;DHT22;412;51.400;7.480;2022-09-09T09:19:22;21.10;97.00
851;DHT22;412;51.400;7.480;2022-09-09T09:25:08;20.90;96.90
851;DHT22;412;51.400;7.480;2022-09-09T09:27:46;21.20;97.00
851;DHT22;412;51.400;7.480;2022-09-09T09:30:21;21.40;96.20
851;DHT22;412;51.400;7.480;2022-09-09T09:32:58;21.60;95.50
851;DHT22;412;51.400;7.480;2022-09-09T09:35:26;21.50;95.50
851;DHT22;412;51.400;7.480;2022-09-09T09:37:52;21.60;95.50
851;DHT22;412;51.400;7.480;2022-09-09T09:40:20;21.80;94.10
851;DHT22;412;51.400;7.480;2022-09-09T09:42:58;21.80;93.30
851;DHT22;412;51.400;7.480;2022-09-09T09:45:44;21.80;94.00
851;DHT22;412;51.400;7.480;2022-09-09T09:48:14;21.90;93.60
851;DHT22;412;51.400;7.480;2022-09-09T09:53:24;22.10;92.20
851;DHT22;412;51.400;7.480;2022-09-09T09:56:05;22.20;92.50
851;DHT22;412;51.400;7.480;2022-09-09T09:58:50;22.20;91.70
851;DHT22;412;51.400;7.480;2022-09-09T10:01:24;22.10;91.30
851;DHT22;412;51.400;7.480;2022-09-09T10:04:00;22.00;92.50
851;DHT22;412;51.400;7.480;2022-09-09T10:06:32;21.90;92.40
851;DHT22;412;51.400;7.480;2022-09-09T10:08:59;22.00;92.00
851;DHT22;412;51.400;7.480;2022-09-09T10:11:49;22.10;91.90
851;DHT22;412;51.400;7.480;2022-09-09T10:14:27;22.20;91.70
851;DHT22;412;51.400;7.480;2022-09-09T10:19:37;22.40;90.60
851;DHT22;412;51.400;7.480;2022-09-09T10:22:25;22.70;90.20
851;DHT22;412;51.400;7.480;2022-09-09T10:27:35;22.90;89.20
851;DHT22;412;51.400;7.480;2022-09-09T10:30:09;23.10;88.20
851;DHT22;412;51.400;7.480;2022-09-09T10:32:54;23.20;86.10
851;DHT22;412;51.400;7.480;2022-09-09T10:35:30;23.00;86.00
851;DHT22;412;51.400;7.480;2022-09-09T10:38:28;23.00;86.20
851;DHT22;412;51.400;7.480;2022-09-09T10:52:09;23.00;85.80
851;DHT22;412;51.400;7.480;2022-09-09T11:00:13;22.70;87.20
851;DHT22;412;51.400;7.480;2022-09-09T11:02:40;22.70;85.80
851;DHT22;412;51.400;7.480;2022-09-09T11:05:20;22.70;87.20
851;DHT22;412;51.400;7.480;2022-09-09T11:13:37;22.90;86.60
851;DHT22;412;51.400;7.480;2022-09-09T11:19:45;23.10;87.70
851;DHT22;412;51.400;7.480;2022-09-09T11:21:50;23.20;84.60
851;DHT22;412;51.400;7.480;2022-09-09T11:26:51;23.50;85.00
851;DHT22;412;51.400;7.480;2022-09-09T11:35:14;23.40;83.10
851;DHT22;412;51.400;7.480;2022-09-09T11:37:55;23.30;81.50
851;DHT22;412;51.400;7.480;2022-09-09T11:40:25;23.30;83.10
851;DHT22;412;51.400;7.480;2022-09-09T11:45:57;23.20;81.00
851;DHT22;412;51.400;7.480;2022-09-09T11:48:33;23.10;81.70
851;DHT22;412;51.400;7.480;2022-09-09T11:51:02;23.00;83.40
851;DHT22;412;51.400;7.480;2022-09-09T11:53:31;22.90;83.50
851;DHT22;412;51.400;7.480;2022-09-09T11:56:30;22.80;83.40
851;DHT22;412;51.400;7.480;2022-09-09T11:59:23;22.80;84.20
851;DHT22;412;51.400;7.480;2022-09-09T12:06:52;23.00;84.90
851;DHT22;412;51.400;7.480;2022-09-09T12:12:26;23.00;86.10
851;DHT22;412;51.400;7.480;2022-09-09T12:17:45;23.10;84.60
851;DHT22;412;51.400;7.480;2022-09-09T12:26:07;23.00;83.10
851;DHT22;412;51.400;7.480;2022-09-09T12:31:44;22.80;83.30
851;DHT22;412;51.400;7.480;2022-09-09T12:34:24;22.70;84.30
851;DHT22;412;51.400;7.480;2022-09-09T12:36:58;22.50;86.80
851;DHT22;412;51.400;7.480;2022-09-09T12:39:38;22.30;92.60
851;DHT22;412;51.400;7.480;2022-09-09T12:42:18;22.30;95.60
851;DHT22;412;51.400;7.480;2022-09-09T12:44:57;22.20;96.30
851;DHT22;412;51.400;7.480;2022-09-09T12:47:39;22.20;95.10
851;DHT22;412;51.400;7.480;2022-09-09T12:50:28;22.10;96.50
851;DHT22;412;51.400;7.480;2022-09-09T12:53:01;22.10;96.00
851;DHT22;412;51.400;7.480;2022-09-09T12:55:30;21.90;95.40
851;DHT22;412;51.400;7.480;2022-09-09T12:57:59;22.10;97.50
851;DHT22;412;51.400;7.480;2022-09-09T13:00:26;22.20;97.00
851;DHT22;412;51.400;7.480;2022-09-09T13:02:58;22.30;97.20
851;DHT22;412;51.400;7.480;2022-09-09T13:05:38;22.40;97.20
851;DHT22;412;51.400;7.480;2022-09-09T13:08:09;22.40;96.70
851;DHT22;412;51.400;7.480;2022-09-09T13:10:59;22.40;95.80
851;DHT22;412;51.400;7.480;2022-09-09T13:13:37;22.40;93.20
851;DHT22;412;51.400;7.480;2022-09-09T13:16:06;22.40;93.20
851;DHT22;412;51.400;7.480;2022-09-09T13:18:39;22.30;92.60
851;DHT22;412;51.400;7.480;2022-09-09T13:21:06;22.30;90.70
851;DHT22;412;51.400;7.480;2022-09-09T13:23:34;22.30;90.90
851;DHT22;412;51.400;7.480;2022-09-09T13:26:23;22.10;91.80
851;DHT22;412;51.400;7.480;2022-09-09T13:28:49;22.20;92.40
851;DHT22;412;51.400;7.480;2022-09-09T13:31:29;22.40;91.00
851;DHT22;412;51.400;7.480;2022-09-09T13:33:55;22.40;90.40
851;DHT22;412;51.400;7.480;2022-09-09T13:36:29;22.50;90.20
851;DHT22;412;51.400;7.480;2022-09-09T13:38:58;22.70;92.70
851;DHT22;412;51.400;7.480;2022-09-09T13:41:35;22.80;92.10
851;DHT22;412;51.400;7.480;2022-09-09T13:44:03;23.00;92.80
851;DHT22;412;51.400;7.480;2022-09-09T13:46:39;23.00;89.30
851;DHT22;412;51.400;7.480;2022-09-09T13:51:42;23.20;91.90
851;DHT22;412;51.400;7.480;2022-09-09T13:54:10;23.20;92.90
851;DHT22;412;51.400;7.480;2022-09-09T13:56:38;23.20;92.80
851;DHT22;412;51.400;7.480;2022-09-09T13:59:05;23.20;92.20
851;DHT22;412;51.400;7.480;2022-09-09T14:01:32;23.20;91.60
851;DHT22;412;51.400;7.480;2022-09-09T14:04:00;23.20;91.20
851;DHT22;412;51.400;7.480;2022-09-09T14:06:26;23.10;92.10
851;DHT22;412;51.400;7.480;2022-09-09T14:08:53;23.00;94.00
851;DHT22;412;51.400;7.480;2022-09-09T14:11:20;23.00;95.10
851;DHT22;412;51.400;7.480;2022-09-09T14:13:47;22.90;96.10
851;DHT22;412;51.400;7.480;2022-09-09T14:16:16;22.80;95.10
851;DHT22;412;51.400;7.480;2022-09-09T14:18:43;22.40;95.80
851;DHT22;412;51.400;7.480;2022-09-09T14:21:09;22.10;96.00
851;DHT22;412;51.400;7.480;2022-09-09T14:23:35;21.70;97.40
851;DHT22;412;51.400;7.480;2022-09-09T14:26:01;21.70;97.90
851;DHT22;412;51.400;7.480;2022-09-09T14:28:27;21.60;97.60
851;DHT22;412;51.400;7.480;2022-09-09T14:30:54;21.60;98.30
851;DHT22;412;51.400;7.480;2022-09-09T14:33:19;21.50;98.00
851;DHT22;412;51.400;7.480;2022-09-09T14:35:45;21.60;98.90
851;DHT22;412;51.400;7.480;2022-09-09T14:38:11;21.60;99.00
851;DHT22;412;51.400;7.480;2022-09-09T14:40:38;21.30;97.70
851;DHT22;412;51.400;7.480;2022-09-09T14:43:04;21.30;98.20
851;DHT22;412;51.400;7.480;2022-09-09T14:45:31;21.50;98.00
851;DHT22;412;51.400;7.480;2022-09-09T14:47:56;21.40;98.90
851;DHT22;412;51.400;7.480;2022-09-09T14:50:23;21.40;98.50
851;DHT22;412;51.400;7.480;2022-09-09T14:52:49;21.50;98.00
851;DHT22;412;51.400;7.480;2022-09-09T14:55:16;21.50;98.40
851;DHT22;412;51.400;7.480;2022-09-09T14:57:42;21.50;98.50
851;DHT22;412;51.400;7.480;2022-09-09T15:00:09;21.60;98.60
851;DHT22;412;51.400;7.480;2022-09-09T15:02:35;21.50;98.70
851;DHT22;412;51.400;7.480;2022-09-09T15:05:01;21.30;99.40
851;DHT22;412;51.400;7.480;2022-09-09T15:07:27;21.20;99.70
851;DHT22;412;51.400;7.480;2022-09-09T15:09:54;21.20;99.90
851;DHT22;412;51.400;7.480;2022-09-09T15:12:20;21.20;99.90
851;DHT22;412;51.400;7.480;2022-09-09T15:14:46;21.20;99.90
851;DHT22;412;51.400;7.480;2022-09-09T15:17:12;21.20;99.90
851;DHT22;412;51.400;7.480;2022-09-09T15:19:38;21.20;99.90
851;DHT22;412;51.400;7.480;2022-09-09T15:22:05;21.20;99.90
851;DHT22;412;51.400;7.480;2022-09-09T15:24:32;21.20;99.90
851;DHT22;412;51.400;7.480;2022-09-09T15:26:58;21.20;99.90
851;DHT22;412;51.400;7.480;2022-09-09T15:29:24;21.10;99.90
851;DHT22;412;51.400;7.480;2022-09-09T15:31:50;20.90;99.90
851;DHT22;412;51.400;7.480;2022-09-09T15:34:16;20.90;99.90
851;DHT22;412;51.400;7.480;2022-09-09T15:36:44;20.70;99.90
851;DHT22;412;51.400;7.480;2022-09-09T15:39:17;20.70;99.90
851;DHT22;412;51.400;7.480;2022-09-09T15:41:44;20.70;99.90
851;DHT22;412;51.400;7.480;2022-09-09T15:44:11;20.60;99.90
851;DHT22;412;51.400;7.480;2022-09-09T15:46:48;20.60;99.90
851;DHT22;412;51.400;7.480;2022-09-09T15:49:16;20.60;99.90
851;DHT22;412;51.400;7.480;2022-09-09T15:51:47;20.60;99.90
851;DHT22;412;51.400;7.480;2022-09-09T15:54:18;20.60;99.90
851;DHT22;412;51.400;7.480;2022-09-09T15:56:45;20.50;99.90
851;DHT22;412;51.400;7.480;2022-09-09T15:59:12;20.50;99.90
851;DHT22;412;51.400;7.480;2022-09-09T16:01:38;20.40;99.90
851;DHT22;412;51.400;7.480;2022-09-09T16:04:05;20.30;99.90
851;DHT22;412;51.400;7.480;2022-09-09T16:06:32;20.20;99.90
851;DHT22;412;51.400;7.480;2022-09-09T16:08:59;20.10;99.90
851;DHT22;412;51.400;7.480;2022-09-09T16:11:29;20.10;99.90
851;DHT22;412;51.400;7.480;2022-09-09T16:13:55;20.00;99.90
851;DHT22;412;51.400;7.480;2022-09-09T16:16:26;19.80;99.90
851;DHT22;412;51.400;7.480;2022-09-09T16:18:57;19.80;99.90
851;DHT22;412;51.400;7.480;2022-09-09T16:23:52;19.80;99.90
851;DHT22;412;51.400;7.480;2022-09-09T16:26:19;19.70;99.90
851;DHT22;412;51.400;7.480;2022-09-09T16:28:45;19.80;99.90
851;DHT22;412;51.400;7.480;2022-09-09T16:31:19;19.70;99.90
851;DHT22;412;51.400;7.480;2022-09-09T16:33:46;19.80;99.90
851;DHT22;412;51.400;7.480;2022-09-09T16:36:15;19.90;99.90
851;DHT22;412;51.400;7.480;2022-09-09T16:38:41;20.00;99.90
851;DHT22;412;51.400;7.480;2022-09-09T16:41:12;20.10;99.90
851;DHT22;412;51.400;7.480;2022-09-09T16:43:39;20.20;99.90
851;DHT22;412;51.400;7.480;2022-09-09T16:46:18;20.30;99.90
851;DHT22;412;51.400;7.480;2022-09-09T16:48:46;20.50;99.90
851;DHT22;412;51.400;7.480;2022-09-09T16:51:17;20.70;99.90
851;DHT22;412;51.400;7.480;2022-09-09T16:53:44;20.80;99.90
851;DHT22;412;51.400;7.480;2022-09-09T16:56:15;20.90;99.90
851;DHT22;412;51.400;7.480;2022-09-09T16:58:42;20.70;99.90
851;DHT22;412;51.400;7.480;2022-09-09T17:01:11;20.60;99.90
851;DHT22;412;51.400;7.480;2022-09-09T17:03:40;20.60;99.90
851;DHT22;412;51.400;7.480;2022-09-09T17:06:14;20.60;99.90
851;DHT22;412;51.400;7.480;2022-09-09T17:08:41;20.70;99.90
851;DHT22;412;51.400;7.480;2022-09-09T17:11:17;20.80;99.90
851;DHT22;412;51.400;7.480;2022-09-09T17:13:45;21.00;99.90
851;DHT22;412;51.400;7.480;2022-09-09T17:16:13;21.20;99.90
851;DHT22;412;51.400;7.480;2022-09-09T17:18:39;21.40;99.90
851;DHT22;412;51.400;7.480;2022-09-09T17:21:14;21.60;99.90
851;DHT22;412;51.400;7.480;2022-09-09T17:23:40;21.60;99.90
851;DHT22;412;51.400;7.480;2022-09-09T17:26:08;21.70;99.90
851;DHT22;412;51.400;7.480;2022-09-09T17:28:36;21.80;99.90
851;DHT22;412;51.400;7.480;2022-09-09T17:31:05;21.70;99.90
851;DHT22;412;51.400;7.480;2022-09-09T17:33:37;21.50;99.90
851;DHT22;412;51.400;7.480;2022-09-09T17:36:10;21.50;99.90
851;DHT22;412;51.400;7.480;2022-09-09T17:38:37;21.40;99.90
851;DHT22;412;51.400;7.480;2022-09-09T17:41:06;21.40;99.90
851;DHT22;412;51.400;7.480;2022-09-09T17:43:33;21.50;99.90
851;DHT22;412;51.400;7.480;2022-09-09T17:46:10;21.60;99.90
851;DHT22;412;51.400;7.480;2022-09-09T17:48:36;21.60;99.90
851;DHT22;412;51.400;7.480;2022-09-09T17:51:04;21.00;99.90
851;DHT22;412;51.400;7.480;2022-09-09T17:53:35;21.10;99.90
851;DHT22;412;51.400;7.480;2022-09-09T17:56:03;21.20;99.90
851;DHT22;412;51.400;7.480;2022-09-09T17:58:29;21.30;99.90
851;DHT22;412;51.400;7.480;2022-09-09T18:00:54;21.40;99.90
851;DHT22;412;51.400;7.480;2022-09-09T18:03:20;21.50;99.90
851;DHT22;412;51.400;7.480;2022-09-09T18:05:46;21.60;99.90
851;DHT22;412;51.400;7.480;2022-09-09T18:08:12;21.80;99.90
851;DHT22;412;51.400;7.480;2022-09-09T18:10:38;21.90;99.90
851;DHT22;412;51.400;7.480;2022-09-09T18:13:04;21.80;99.90
851;DHT22;412;51.400;7.480;2022-09-09T18:15:36;21.60;99.90
851;DHT22;412;51.400;7.480;2022-09-09T18:18:02;21.40;99.90
851;DHT22;412;51.400;7.480;2022-09-09T18:20:31;21.20;99.90
851;DHT22;412;51.400;7.480;2022-09-09T18:22:57;21.00;99.90
851;DHT22;412;51.400;7.480;2022-09-09T18:25:23;20.90;99.90
851;DHT22;412;51.400;7.480;2022-09-09T18:27:49;20.80;99.90
851;DHT22;412;51.400;7.480;2022-09-09T18:30:16;20.70;99.90
851;DHT22;412;51.400;7.480;2022-09-09T18:32:42;20.60;99.90
851;DHT22;412;51.400;7.480;2022-09-09T18:35:07;20.50;99.90
851;DHT22;412;51.400;7.480;2022-09-09T18:37:33;20.40;99.90
851;DHT22;412;51.400;7.480;2022-09-09T18:40:00;20.20;99.90
851;DHT22;412;51.400;7.480;2022-09-09T18:42:26;20.10;99.90
851;DHT22;412;51.400;7.480;2022-09-09T18:44:52;19.90;99.90
851;DHT22;412;51.400;7.480;2022-09-09T18:47:17;19.30;99.90
851;DHT22;412;51.400;7.480;2022-09-09T18:49:43;19.20;99.90
851;DHT22;412;51.400;7.480;2022-09-09T18:52:11;18.80;99.90
851;DHT22;412;51.400;7.480;2022-09-09T18:54:37;18.80;99.90
851;DHT22;412;51.400;7.480;2022-09-09T18:57:02;18.70;99.90
851;DHT22;412;51.400;7.480;2022-09-09T18:59:29;18.70;99.90
851;DHT22;412;51.400;7.480;2022-09-09T19:01:55;18.80;99.90